sensor_id;sensor_type;location;lat;lon;timestamp;pressure;altitude;pressure_sealevel;temperature;humidity
24752;BME280;27246;52.376;4.628;2023-03-01T00:03:15;103153.81;;;3.88;77.75
24752;BME280;27246;52.376;4.628;2023-03-01T00:08:17;103143.97;;;3.85;78.51
24752;BME280;27246;52.376;4.628;2023-03-01T00:13:19;103138.59;;;3.84;79.20
24752;BME280;27246;52.376;4.628;2023-03-01T00:18:21;103137.53;;;3.86;79.49
24752;BME280;27246;52.376;4.628;2023-03-01T00:23:24;103137.63;;;3.85;80.14
24752;BME280;27246;52.376;4.628;2023-03-01T00:28:26;103134.44;;;3.76;80.23
24752;BME280;27246;52.376;4.628;2023-03-01T00:33:27;103134.44;;;3.76;80.96
24752;BME280;27246;52.376;4.628;2023-03-01T00:38:29;103127.41;;;3.72;81.06
24752;BME280;27246;52.376;4.628;2023-03-01T00:43:32;103134.78;;;3.70;81.53
24752;BME280;27246;52.376;4.628;2023-03-01T00:48:38;103125.72;;;3.70;81.36
24752;BME280;27246;52.376;4.628;2023-03-01T00:53:40;103135.84;;;3.68;81.64
24752;BME280;27246;52.376;4.628;2023-03-01T00:58:42;103129.59;;;3.66;81.57
24752;BME280;27246;52.376;4.628;2023-03-01T01:03:56;103114.34;;;3.61;81.70
24752;BME280;27246;52.376;4.628;2023-03-01T01:08:59;103114.63;;;3.57;81.71
24752;BME280;27246;52.376;4.628;2023-03-01T01:14:01;103115.63;;;3.54;81.82
24752;BME280;27246;52.376;4.628;2023-03-01T01:19:03;103107.41;;;3.56;81.74
24752;BME280;27246;52.376;4.628;2023-03-01T01:24:05;103109.31;;;3.54;82.32
24752;BME280;27246;52.376;4.628;2023-03-01T01:29:07;103104.75;;;3.54;82.21
24752;BME280;27246;52.376;4.628;2023-03-01T01:34:14;103096.81;;;3.50;82.45
24752;BME280;27246;52.376;4.628;2023-03-01T01:39:16;103083.19;;;3.50;82.73
24752;BME280;27246;52.376;4.628;2023-03-01T01:49:36;103064.31;;;3.47;82.68
24752;BME280;27246;52.376;4.628;2023-03-01T01:54:46;103064.47;;;3.44;82.78
24752;BME280;27246;52.376;4.628;2023-03-01T01:59:54;103068.06;;;3.44;83.11
24752;BME280;27246;52.376;4.628;2023-03-01T02:05:05;103059.09;;;3.42;83.26
24752;BME280;27246;52.376;4.628;2023-03-01T02:10:11;103062.88;;;3.39;83.11
24752;BME280;27246;52.376;4.628;2023-03-01T02:15:13;103061.13;;;3.38;83.32
24752;BME280;27246;52.376;4.628;2023-03-01T02:20:27;103063.75;;;3.40;83.19
24752;BME280;27246;52.376;4.628;2023-03-01T02:31:06;103052.16;;;3.36;83.72
24752;BME280;27246;52.376;4.628;2023-03-01T02:36:35;103046.78;;;3.35;83.80
24752;BME280;27246;52.376;4.628;2023-03-01T02:41:39;103042.41;;;3.32;83.60
24752;BME280;27246;52.376;4.628;2023-03-01T02:46:48;103043.34;;;3.31;83.88
24752;BME280;27246;52.376;4.628;2023-03-01T02:57:13;103032.63;;;3.28;84.27
24752;BME280;27246;52.376;4.628;2023-03-01T03:02:24;103027.66;;;3.19;84.28
24752;BME280;27246;52.376;4.628;2023-03-01T03:07:43;103018.69;;;3.17;84.33
24752;BME280;27246;52.376;4.628;2023-03-01T03:12:53;103021.41;;;3.17;84.34
24752;BME280;27246;52.376;4.628;2023-03-01T03:17:57;103013.41;;;3.14;84.17
24752;BME280;27246;52.376;4.628;2023-03-01T03:23:00;103004.63;;;3.09;84.44
24752;BME280;27246;52.376;4.628;2023-03-01T03:28:02;103002.69;;;3.11;84.82
24752;BME280;27246;52.376;4.628;2023-03-01T03:33:11;103006.81;;;3.18;84.95
24752;BME280;27246;52.376;4.628;2023-03-01T03:38:16;102994.53;;;3.11;84.21
24752;BME280;27246;52.376;4.628;2023-03-01T03:43:21;102987.47;;;3.07;84.20
24752;BME280;27246;52.376;4.628;2023-03-01T03:48:24;102986.16;;;2.98;84.70
24752;BME280;27246;52.376;4.628;2023-03-01T03:53:27;102985.44;;;2.94;84.60
24752;BME280;27246;52.376;4.628;2023-03-01T03:58:29;102987.50;;;2.89;85.12
24752;BME280;27246;52.376;4.628;2023-03-01T04:03:32;102988.63;;;2.85;85.25
24752;BME280;27246;52.376;4.628;2023-03-01T04:08:33;102989.94;;;2.78;85.19
24752;BME280;27246;52.376;4.628;2023-03-01T04:13:35;102994.56;;;2.76;85.46
24752;BME280;27246;52.376;4.628;2023-03-01T04:18:37;102990.72;;;2.80;84.67
24752;BME280;27246;52.376;4.628;2023-03-01T04:23:39;102976.53;;;2.73;84.24
24752;BME280;27246;52.376;4.628;2023-03-01T04:28:42;102977.84;;;2.66;83.54
24752;BME280;27246;52.376;4.628;2023-03-01T04:33:52;102966.47;;;2.58;83.37
24752;BME280;27246;52.376;4.628;2023-03-01T04:38:55;102969.28;;;2.56;83.49
24752;BME280;27246;52.376;4.628;2023-03-01T04:43:57;102968.22;;;2.59;83.44
24752;BME280;27246;52.376;4.628;2023-03-01T04:49:02;102963.13;;;2.53;83.29
24752;BME280;27246;52.376;4.628;2023-03-01T04:54:04;102937.81;;;2.51;83.68
24752;BME280;27246;52.376;4.628;2023-03-01T04:59:10;102958.00;;;2.47;84.63
24752;BME280;27246;52.376;4.628;2023-03-01T05:04:13;102952.81;;;2.42;84.25
24752;BME280;27246;52.376;4.628;2023-03-01T05:09:15;102963.19;;;2.51;84.28
24752;BME280;27246;52.376;4.628;2023-03-01T05:14:17;102963.44;;;2.47;84.23
24752;BME280;27246;52.376;4.628;2023-03-01T05:19:18;102957.13;;;2.46;85.10
24752;BME280;27246;52.376;4.628;2023-03-01T05:24:24;102944.56;;;2.44;86.66
24752;BME280;27246;52.376;4.628;2023-03-01T05:29:27;102943.53;;;2.46;86.91
24752;BME280;27246;52.376;4.628;2023-03-01T05:34:34;102941.75;;;2.28;84.37
24752;BME280;27246;52.376;4.628;2023-03-01T05:39:36;102928.94;;;2.12;84.50
24752;BME280;27246;52.376;4.628;2023-03-01T05:44:38;102925.28;;;2.13;83.58
24752;BME280;27246;52.376;4.628;2023-03-01T05:49:40;102923.88;;;2.05;83.10
24752;BME280;27246;52.376;4.628;2023-03-01T05:54:41;102916.28;;;1.94;83.46
24752;BME280;27246;52.376;4.628;2023-03-01T05:59:43;102918.50;;;1.86;84.26
24752;BME280;27246;52.376;4.628;2023-03-01T06:04:45;102920.56;;;1.80;84.64
24752;BME280;27246;52.376;4.628;2023-03-01T06:09:46;102922.16;;;1.85;84.80
24752;BME280;27246;52.376;4.628;2023-03-01T06:14:48;102920.25;;;1.87;85.08
24752;BME280;27246;52.376;4.628;2023-03-01T06:19:50;102906.41;;;1.74;85.06
24752;BME280;27246;52.376;4.628;2023-03-01T06:24:51;102910.63;;;1.62;86.36
24752;BME280;27246;52.376;4.628;2023-03-01T06:29:53;102902.84;;;1.54;86.51
24752;BME280;27246;52.376;4.628;2023-03-01T06:34:55;102899.13;;;1.57;86.87
24752;BME280;27246;52.376;4.628;2023-03-01T06:39:57;102901.09;;;1.53;86.94
24752;BME280;27246;52.376;4.628;2023-03-01T06:44:58;102900.56;;;1.64;87.38
24752;BME280;27246;52.376;4.628;2023-03-01T06:50:01;102903.56;;;1.58;87.70
24752;BME280;27246;52.376;4.628;2023-03-01T06:55:03;102905.03;;;1.65;86.95
24752;BME280;27246;52.376;4.628;2023-03-01T07:00:06;102901.53;;;1.63;86.68
24752;BME280;27246;52.376;4.628;2023-03-01T07:05:08;102895.50;;;1.56;87.01
24752;BME280;27246;52.376;4.628;2023-03-01T07:10:10;102902.31;;;1.65;87.39
24752;BME280;27246;52.376;4.628;2023-03-01T07:15:12;102910.66;;;1.43;87.32
24752;BME280;27246;52.376;4.628;2023-03-01T07:20:17;102920.38;;;1.28;87.88
24752;BME280;27246;52.376;4.628;2023-03-01T07:25:19;102923.25;;;1.25;89.32
24752;BME280;27246;52.376;4.628;2023-03-01T07:30:21;102928.53;;;1.28;89.14
24752;BME280;27246;52.376;4.628;2023-03-01T07:35:27;102916.94;;;1.44;90.62
24752;BME280;27246;52.376;4.628;2023-03-01T07:40:29;102927.72;;;1.64;92.40
24752;BME280;27246;52.376;4.628;2023-03-01T07:45:31;102934.00;;;1.84;92.56
24752;BME280;27246;52.376;4.628;2023-03-01T07:50:32;102934.81;;;1.86;94.22
24752;BME280;27246;52.376;4.628;2023-03-01T07:55:34;102936.78;;;1.65;96.11
24752;BME280;27246;52.376;4.628;2023-03-01T08:00:36;102932.22;;;1.65;98.06
24752;BME280;27246;52.376;4.628;2023-03-01T08:05:37;102931.19;;;1.49;98.36
24752;BME280;27246;52.376;4.628;2023-03-01T08:10:39;102922.66;;;1.75;100.00
24752;BME280;27246;52.376;4.628;2023-03-01T08:15:41;102927.03;;;1.97;99.87
24752;BME280;27246;52.376;4.628;2023-03-01T08:20:42;102928.13;;;2.10;100.00
24752;BME280;27246;52.376;4.628;2023-03-01T08:25:44;102929.44;;;2.20;100.00
24752;BME280;27246;52.376;4.628;2023-03-01T08:30:46;102931.75;;;2.28;100.00
24752;BME280;27246;52.376;4.628;2023-03-01T08:35:48;102923.84;;;2.24;100.00
24752;BME280;27246;52.376;4.628;2023-03-01T08:40:49;102916.56;;;2.24;100.00
24752;BME280;27246;52.376;4.628;2023-03-01T08:45:51;102905.34;;;2.30;100.00
24752;BME280;27246;52.376;4.628;2023-03-01T08:50:53;102900.31;;;2.23;100.00
24752;BME280;27246;52.376;4.628;2023-03-01T08:55:54;102908.97;;;2.13;100.00
24752;BME280;27246;52.376;4.628;2023-03-01T09:00:56;102908.16;;;2.11;100.00
24752;BME280;27246;52.376;4.628;2023-03-01T09:06:02;102910.00;;;2.28;100.00
24752;BME280;27246;52.376;4.628;2023-03-01T09:11:06;102906.09;;;2.34;100.00
24752;BME280;27246;52.376;4.628;2023-03-01T09:16:11;102902.50;;;2.33;100.00
24752;BME280;27246;52.376;4.628;2023-03-01T09:21:14;102907.19;;;2.65;100.00
24752;BME280;27246;52.376;4.628;2023-03-01T09:26:22;102904.00;;;2.56;100.00
24752;BME280;27246;52.376;4.628;2023-03-01T09:31:24;102909.44;;;2.56;100.00
24752;BME280;27246;52.376;4.628;2023-03-01T09:36:26;102899.94;;;2.48;100.00
24752;BME280;27246;52.376;4.628;2023-03-01T09:46:47;102891.25;;;2.57;100.00
24752;BME280;27246;52.376;4.628;2023-03-01T10:02:52;102889.13;;;3.13;100.00
24752;BME280;27246;52.376;4.628;2023-03-01T10:08:14;102879.03;;;3.47;100.00
24752;BME280;27246;52.376;4.628;2023-03-01T10:13:47;102881.31;;;4.00;96.33
24752;BME280;27246;52.376;4.628;2023-03-01T10:19:00;102874.53;;;4.38;93.00
24752;BME280;27246;52.376;4.628;2023-03-01T10:24:14;102874.56;;;4.81;90.04
24752;BME280;27246;52.376;4.628;2023-03-01T10:29:19;102871.44;;;4.87;84.43
24752;BME280;27246;52.376;4.628;2023-03-01T10:34:31;102859.44;;;5.33;86.87
24752;BME280;27246;52.376;4.628;2023-03-01T10:39:33;102858.00;;;5.54;81.37
24752;BME280;27246;52.376;4.628;2023-03-01T10:44:38;102858.56;;;5.87;79.26
24752;BME280;27246;52.376;4.628;2023-03-01T10:55:02;102841.13;;;6.02;72.98
24752;BME280;27246;52.376;4.628;2023-03-01T11:00:24;102837.66;;;6.51;70.14
24752;BME280;27246;52.376;4.628;2023-03-01T11:05:33;102814.81;;;7.15;66.55
24752;BME280;27246;52.376;4.628;2023-03-01T11:10:36;102824.94;;;6.89;62.86
24752;BME280;27246;52.376;4.628;2023-03-01T11:15:37;102823.44;;;6.85;59.68
24752;BME280;27246;52.376;4.628;2023-03-01T11:20:39;102817.81;;;7.36;58.20
24752;BME280;27246;52.376;4.628;2023-03-01T11:25:47;102812.56;;;7.33;56.09
24752;BME280;27246;52.376;4.628;2023-03-01T11:30:57;102811.97;;;7.16;54.21
24752;BME280;27246;52.376;4.628;2023-03-01T11:41:19;102797.69;;;7.24;53.80
24752;BME280;27246;52.376;4.628;2023-03-01T12:13:30;102756.72;;;7.82;48.42
24752;BME280;27246;52.376;4.628;2023-03-01T12:19:40;102746.53;;;7.60;48.54
24752;BME280;27246;52.376;4.628;2023-03-01T12:51:14;102725.41;;;7.25;48.17
24752;BME280;27246;52.376;4.628;2023-03-01T12:56:21;102715.13;;;7.16;48.55
24752;BME280;27246;52.376;4.628;2023-03-01T13:07:01;102701.03;;;7.33;48.80
24752;BME280;27246;52.376;4.628;2023-03-01T13:17:46;102693.94;;;7.07;45.50
24752;BME280;27246;52.376;4.628;2023-03-01T13:23:00;102688.44;;;7.07;47.05
24752;BME280;27246;52.376;4.628;2023-03-01T13:38:45;102681.97;;;7.08;46.30
24752;BME280;27246;52.376;4.628;2023-03-01T13:43:47;102662.84;;;6.95;46.08
24752;BME280;27246;52.376;4.628;2023-03-01T13:48:55;102669.50;;;7.04;45.97
24752;BME280;27246;52.376;4.628;2023-03-01T13:53:58;102670.84;;;6.98;47.52
24752;BME280;27246;52.376;4.628;2023-03-01T13:59:14;102665.66;;;6.82;48.38
24752;BME280;27246;52.376;4.628;2023-03-01T14:04:28;102647.94;;;6.99;49.45
24752;BME280;27246;52.376;4.628;2023-03-01T14:09:32;102637.72;;;6.77;49.47
24752;BME280;27246;52.376;4.628;2023-03-01T14:14:42;102627.47;;;6.68;49.71
24752;BME280;27246;52.376;4.628;2023-03-01T14:19:47;102622.94;;;6.55;50.49
24752;BME280;27246;52.376;4.628;2023-03-01T14:24:58;102617.69;;;7.00;50.82
24752;BME280;27246;52.376;4.628;2023-03-01T14:30:04;102609.53;;;6.64;51.15
24752;BME280;27246;52.376;4.628;2023-03-01T14:35:31;102601.16;;;6.41;52.74
24752;BME280;27246;52.376;4.628;2023-03-01T14:40:35;102591.25;;;6.51;53.55
24752;BME280;27246;52.376;4.628;2023-03-01T14:45:37;102578.97;;;7.05;53.36
24752;BME280;27246;52.376;4.628;2023-03-01T14:50:43;102580.28;;;6.64;53.04
24752;BME280;27246;52.376;4.628;2023-03-01T14:55:48;102571.44;;;6.24;53.11
24752;BME280;27246;52.376;4.628;2023-03-01T15:00:54;102567.06;;;6.21;52.96
24752;BME280;27246;52.376;4.628;2023-03-01T15:05:58;102569.41;;;6.38;52.67
24752;BME280;27246;52.376;4.628;2023-03-01T15:11:17;102558.69;;;6.84;54.10
24752;BME280;27246;52.376;4.628;2023-03-01T15:16:26;102558.25;;;6.41;51.35
24752;BME280;27246;52.376;4.628;2023-03-01T15:21:32;102559.44;;;6.13;52.45
24752;BME280;27246;52.376;4.628;2023-03-01T15:26:40;102552.03;;;6.64;53.58
24752;BME280;27246;52.376;4.628;2023-03-01T15:31:43;102548.16;;;6.42;51.25
24752;BME280;27246;52.376;4.628;2023-03-01T15:36:46;102547.50;;;6.14;51.69
24752;BME280;27246;52.376;4.628;2023-03-01T15:41:51;102537.91;;;6.33;51.57
24752;BME280;27246;52.376;4.628;2023-03-01T15:46:52;102542.09;;;6.26;52.87
24752;BME280;27246;52.376;4.628;2023-03-01T15:51:55;102536.34;;;6.17;52.56
24752;BME280;27246;52.376;4.628;2023-03-01T15:56:56;102531.88;;;6.04;52.44
24752;BME280;27246;52.376;4.628;2023-03-01T16:01:58;102522.06;;;6.01;51.15
24752;BME280;27246;52.376;4.628;2023-03-01T16:06:59;102528.75;;;5.97;51.60
24752;BME280;27246;52.376;4.628;2023-03-01T16:12:02;102517.19;;;6.17;50.79
24752;BME280;27246;52.376;4.628;2023-03-01T16:17:04;102519.91;;;6.17;50.48
24752;BME280;27246;52.376;4.628;2023-03-01T16:22:08;102517.44;;;6.01;51.48
24752;BME280;27246;52.376;4.628;2023-03-01T16:27:11;102515.94;;;5.97;52.12
24752;BME280;27246;52.376;4.628;2023-03-01T16:32:12;102518.75;;;6.33;52.27
24752;BME280;27246;52.376;4.628;2023-03-01T16:37:15;102507.47;;;6.13;52.46
24752;BME280;27246;52.376;4.628;2023-03-01T16:42:17;102510.66;;;5.94;52.86
24752;BME280;27246;52.376;4.628;2023-03-01T16:47:19;102499.97;;;5.78;53.76
24752;BME280;27246;52.376;4.628;2023-03-01T16:52:22;102501.63;;;5.81;54.24
24752;BME280;27246;52.376;4.628;2023-03-01T16:57:23;102499.81;;;5.56;55.75
24752;BME280;27246;52.376;4.628;2023-03-01T17:02:25;102495.88;;;5.60;55.57
24752;BME280;27246;52.376;4.628;2023-03-01T17:07:27;102498.69;;;5.71;56.52
24752;BME280;27246;52.376;4.628;2023-03-01T17:12:29;102490.31;;;5.49;57.49
24752;BME280;27246;52.376;4.628;2023-03-01T17:17:31;102501.97;;;5.76;57.44
24752;BME280;27246;52.376;4.628;2023-03-01T17:22:33;102497.63;;;5.61;58.40
24752;BME280;27246;52.376;4.628;2023-03-01T17:27:39;102488.47;;;5.49;59.38
24752;BME280;27246;52.376;4.628;2023-03-01T17:32:41;102493.78;;;5.64;59.81
24752;BME280;27246;52.376;4.628;2023-03-01T17:37:42;102495.00;;;5.59;60.74
24752;BME280;27246;52.376;4.628;2023-03-01T17:42:46;102505.28;;;5.43;61.54
24752;BME280;27246;52.376;4.628;2023-03-01T17:47:48;102502.78;;;5.27;62.11
24752;BME280;27246;52.376;4.628;2023-03-01T17:52:50;102509.00;;;5.29;62.65
24752;BME280;27246;52.376;4.628;2023-03-01T17:57:52;102516.53;;;5.26;62.80
24752;BME280;27246;52.376;4.628;2023-03-01T18:02:53;102512.19;;;5.23;63.20
24752;BME280;27246;52.376;4.628;2023-03-01T18:07:55;102508.25;;;5.27;63.11
24752;BME280;27246;52.376;4.628;2023-03-01T18:12:57;102521.03;;;5.27;63.36
24752;BME280;27246;52.376;4.628;2023-03-01T18:17:58;102514.56;;;5.28;62.72
24752;BME280;27246;52.376;4.628;2023-03-01T18:23:00;102520.59;;;5.33;62.32
24752;BME280;27246;52.376;4.628;2023-03-01T18:28:02;102524.88;;;5.37;61.72
24752;BME280;27246;52.376;4.628;2023-03-01T18:33:03;102534.16;;;5.34;61.64
24752;BME280;27246;52.376;4.628;2023-03-01T18:38:05;102531.53;;;5.33;61.37
24752;BME280;27246;52.376;4.628;2023-03-01T18:43:07;102532.63;;;5.30;61.25
24752;BME280;27246;52.376;4.628;2023-03-01T18:48:12;102532.19;;;5.36;61.14
24752;BME280;27246;52.376;4.628;2023-03-01T18:53:14;102530.00;;;5.29;62.12
24752;BME280;27246;52.376;4.628;2023-03-01T18:58:16;102536.53;;;5.13;61.43
24752;BME280;27246;52.376;4.628;2023-03-01T19:03:17;102537.31;;;5.03;61.74
24752;BME280;27246;52.376;4.628;2023-03-01T19:08:19;102532.16;;;4.98;62.68
24752;BME280;27246;52.376;4.628;2023-03-01T19:13:21;102536.53;;;5.00;63.44
24752;BME280;27246;52.376;4.628;2023-03-01T19:18:23;102537.63;;;5.11;63.77
24752;BME280;27246;52.376;4.628;2023-03-01T19:23:24;102542.19;;;4.97;64.72
24752;BME280;27246;52.376;4.628;2023-03-01T19:28:26;102543.72;;;5.01;65.18
24752;BME280;27246;52.376;4.628;2023-03-01T19:33:29;102536.72;;;4.97;65.50
24752;BME280;27246;52.376;4.628;2023-03-01T19:38:31;102531.56;;;4.93;66.03
24752;BME280;27246;52.376;4.628;2023-03-01T19:43:33;102528.34;;;5.00;65.90
24752;BME280;27246;52.376;4.628;2023-03-01T19:48:35;102517.63;;;4.97;66.27
24752;BME280;27246;52.376;4.628;2023-03-01T19:53:39;102523.38;;;4.93;66.49
24752;BME280;27246;52.376;4.628;2023-03-01T19:58:40;102514.78;;;4.99;66.71
24752;BME280;27246;52.376;4.628;2023-03-01T20:03:44;102518.00;;;4.91;66.90
24752;BME280;27246;52.376;4.628;2023-03-01T20:08:49;102511.88;;;4.88;67.21
24752;BME280;27246;52.376;4.628;2023-03-01T20:13:51;102505.44;;;4.89;66.71
24752;BME280;27246;52.376;4.628;2023-03-01T20:18:53;102512.63;;;4.64;67.43
24752;BME280;27246;52.376;4.628;2023-03-01T20:23:54;102516.97;;;4.67;67.37
24752;BME280;27246;52.376;4.628;2023-03-01T20:28:56;102512.97;;;4.72;67.57
24752;BME280;27246;52.376;4.628;2023-03-01T20:33:58;102507.41;;;4.74;67.29
24752;BME280;27246;52.376;4.628;2023-03-01T20:39:00;102512.63;;;4.64;67.77
24752;BME280;27246;52.376;4.628;2023-03-01T20:44:02;102525.16;;;4.67;68.08
24752;BME280;27246;52.376;4.628;2023-03-01T20:49:06;102517.59;;;4.57;68.36
24752;BME280;27246;52.376;4.628;2023-03-01T20:54:08;102524.41;;;4.65;68.58
24752;BME280;27246;52.376;4.628;2023-03-01T20:59:11;102528.22;;;4.62;68.56
24752;BME280;27246;52.376;4.628;2023-03-01T21:04:13;102537.50;;;4.59;68.99
24752;BME280;27246;52.376;4.628;2023-03-01T21:09:14;102537.88;;;4.80;69.22
24752;BME280;27246;52.376;4.628;2023-03-01T21:14:16;102539.81;;;4.66;69.81
24752;BME280;27246;52.376;4.628;2023-03-01T21:19:18;102548.50;;;4.58;70.84
24752;BME280;27246;52.376;4.628;2023-03-01T21:24:23;102556.72;;;4.71;70.61
24752;BME280;27246;52.376;4.628;2023-03-01T21:29:25;102559.56;;;4.69;70.97
24752;BME280;27246;52.376;4.628;2023-03-01T21:34:27;102567.66;;;4.71;70.93
24752;BME280;27246;52.376;4.628;2023-03-01T21:39:29;102571.91;;;4.75;71.13
24752;BME280;27246;52.376;4.628;2023-03-01T21:44:31;102566.63;;;4.86;71.49
24752;BME280;27246;52.376;4.628;2023-03-01T21:49:34;102566.28;;;4.78;72.03
24752;BME280;27246;52.376;4.628;2023-03-01T21:54:37;102575.53;;;4.75;73.15
24752;BME280;27246;52.376;4.628;2023-03-01T21:59:39;102564.56;;;4.63;74.57
24752;BME280;27246;52.376;4.628;2023-03-01T22:04:41;102562.66;;;4.50;75.79
24752;BME280;27246;52.376;4.628;2023-03-01T22:09:43;102559.47;;;4.44;77.37
24752;BME280;27246;52.376;4.628;2023-03-01T22:14:45;102558.72;;;4.41;78.22
24752;BME280;27246;52.376;4.628;2023-03-01T22:19:46;102561.66;;;4.51;79.32
24752;BME280;27246;52.376;4.628;2023-03-01T22:24:48;102561.91;;;4.48;79.78
24752;BME280;27246;52.376;4.628;2023-03-01T22:29:50;102562.56;;;4.52;80.53
24752;BME280;27246;52.376;4.628;2023-03-01T22:34:52;102564.22;;;4.27;81.90
24752;BME280;27246;52.376;4.628;2023-03-01T22:39:54;102558.25;;;4.20;83.80
24752;BME280;27246;52.376;4.628;2023-03-01T22:44:57;102564.22;;;4.27;84.25
24752;BME280;27246;52.376;4.628;2023-03-01T22:50:00;102564.34;;;4.11;85.29
24752;BME280;27246;52.376;4.628;2023-03-01T22:55:01;102570.19;;;4.05;86.13
24752;BME280;27246;52.376;4.628;2023-03-01T23:00:06;102563.19;;;4.01;87.02
24752;BME280;27246;52.376;4.628;2023-03-01T23:05:08;102548.66;;;4.00;87.54
24752;BME280;27246;52.376;4.628;2023-03-01T23:10:12;102547.03;;;3.84;87.71
24752;BME280;27246;52.376;4.628;2023-03-01T23:15:14;102548.59;;;3.88;87.98
24752;BME280;27246;52.376;4.628;2023-03-01T23:20:16;102530.78;;;3.82;88.92
24752;BME280;27246;52.376;4.628;2023-03-01T23:25:18;102536.31;;;3.95;89.27
24752;BME280;27246;52.376;4.628;2023-03-01T23:30:20;102525.63;;;4.19;87.58
24752;BME280;27246;52.376;4.628;2023-03-01T23:35:21;102532.03;;;4.05;87.91
24752;BME280;27246;52.376;4.628;2023-03-01T23:40:23;102530.47;;;4.01;87.87
24752;BME280;27246;52.376;4.628;2023-03-01T23:45:25;102525.28;;;3.96;88.41
24752;BME280;27246;52.376;4.628;2023-03-01T23:50:27;102526.00;;;4.54;87.02
24752;BME280;27246;52.376;4.628;2023-03-01T23:55:29;102519.75;;;4.39;86.25
